Latest Weather Observations for Jacup

IDW60801

Issued at 6:32 am WST Wednesday 28 January 2015 (issued every 30 minutes, with the page automatically refreshed every 10 minutes)

About weather observations | Map of weather stations | Latest weather observations for WA | Other Formats
Station Details ID: 010905 Name: JACUP Lat: -33.89 Lon: 119.11 Height: 305.0 m
Data from the previous 72 hours. | See also: Recent months at Jacup
Date/Time
WST
Temp
°C
App
Temp
°C
Dew
Point
Rel
Hum
%
Delta-T
°C
Wind Press
QNH
hPa
Press
MSL
hPa
Rain
since 9 am
mm
Dir
 
Spd
km/h
Gust
km/h
Spd
kts
Gust
kts
28/06:30am 20.0 16.6 11.2 57 4.9 NNE 20 28 11 15 1012.3 1011.1 0.0
28/06:00am 17.7 14.2 10.8 64 3.8 NNE 20 26 11 14 1012.0 1010.8 0.0
28/05:30am 17.4 13.9 10.8 65 3.6 NNE 20 24 11 13 1011.8 1010.6 0.0
28/05:00am 18.1 14.8 11.0 63 3.9 NNE 19 24 10 13 1011.6 1010.4 0.0
28/04:30am 18.5 15.3 11.3 63 4.0 NNE 19 30 10 16 1011.2 1010.0 0.0
28/04:00am 18.3 15.0 11.6 65 3.7 NNE 20 28 11 15 1011.1 1009.9 0.0
28/03:30am 18.5 15.5 11.8 65 3.7 NE 19 24 10 13 1011.1 1009.9 0.0
28/03:00am 18.3 15.7 12.1 67 3.5 NE 17 24 9 13 1011.1 1009.9 0.0
28/02:30am 18.6 16.2 12.6 68 3.4 NE 17 22 9 12 1011.1 1009.9 0.0
28/02:00am 18.4 15.7 12.8 70 3.2 NE 19 26 10 14 1011.1 1009.9 0.0
28/01:30am 17.6 15.0 13.3 76 2.5 ENE 19 22 10 12 1011.2 1010.0 0.0
28/01:00am 17.3 15.3 13.8 80 2.0 NE 17 22 9 12 1011.4 1010.2 0.0
28/12:30am 16.6 14.3 14.1 85 1.4 ENE 19 22 10 12 1011.6 1010.4 0.0
28/12:00am 16.5 14.3 14.3 87 1.3 ENE 19 24 10 13 1011.8 1010.6 0.0
 
Date/Time
WST
Temp
°C
App
Temp
°C
Dew
Point
Rel
Hum
%
Delta-T
°C
Wind Press
QNH
hPa
Press
MSL
hPa
Rain
since 9 am
mm
Dir
 
Spd
km/h
Gust
km/h
Spd
kts
Gust
kts
27/11:30pm 16.6 14.3 14.6 88 1.2 ENE 20 24 11 13 1012.1 1010.9 0.0
27/11:00pm 17.0 15.0 15.0 88 1.2 ENE 19 24 10 13 1012.1 1010.9 0.0
27/10:30pm 17.3 14.9 15.3 88 1.2 E 22 28 12 15 1012.2 1011.0 0.0
27/10:00pm 17.7 15.0 15.5 87 1.3 E 24 32 13 17 1012.5 1011.4 0.0
27/09:30pm 18.1 16.1 15.4 84 1.6 E 20 28 11 15 1012.6 1011.5 0.0
27/09:00pm 18.4 16.3 15.1 81 2.0 E 20 28 11 15 1012.8 1011.7 0.0
27/08:30pm 19.1 16.4 14.6 75 2.6 E 22 32 12 17 1012.8 1011.7 0.0
27/08:00pm 19.7 16.4 14.1 70 3.3 E 24 33 13 18 1012.8 1011.7 0.0
27/07:30pm 20.6 17.2 13.6 64 4.1 ESE 24 35 13 19 1012.7 1011.6 0.0
27/07:00pm 22.0 17.0 13.4 58 5.0 ESE 32 43 17 23 1012.2 1011.0 0.0
27/06:30pm 24.1 19.6 12.7 49 6.6 ESE 28 41 15 22 1011.9 1010.7 0.0
27/06:00pm 25.4 21.3 13.9 49 6.9 ESE 28 37 15 20 1011.5 1010.3 0.0
27/05:30pm 26.5 21.3 12.9 43 8.0 ESE 32 43 17 23 1011.3 1010.1 0.0
27/05:00pm 28.0 22.4 12.0 37 9.4 ESE 33 43 18 23 1011.1 1009.9 0.0
27/04:30pm 28.7 23.2 11.7 35 9.9 ESE 32 46 17 25 1011.0 1009.8 0.0
27/04:00pm 29.3 23.7 11.4 33 10.5 ESE 32 50 17 27 1011.1 1009.9 0.0
27/03:55pm 29.9 24.1 10.9 31 11.0 ESE 32 50 17 27 1011.1 1009.9 0.0
27/03:30pm 30.5 24.9 11.5 31 11.2 ESE 32 43 17 23 1011.1 1009.9 0.0
27/03:00pm 30.9 25.1 10.8 29 11.7 ESE 32 44 17 24 1011.2 1010.0 0.0
27/02:30pm 31.8 25.7 9.9 26 12.6 ESE 32 46 17 25 1011.1 1009.9 0.0
27/02:00pm 32.0 27.1 10.1 26 12.7 ESE 26 44 14 24 1011.2 1010.0 0.0
27/01:30pm 31.8 28.2 2.9 16 14.9 ENE 11 24 6 13 1011.6 1010.4 0.0
27/01:00pm 31.7 27.7 2.8 16 14.9 NNE 13 24 7 13 1011.9 1010.7 0.0
27/12:30pm 31.4 27.1 3.4 17 14.5 ENE 15 28 8 15 1012.3 1011.1 0.0
27/12:00pm 31.0 27.2 3.9 18 14.1 NE 13 24 7 13 1012.7 1011.6 0.0
27/11:30am 30.4 25.5 4.2 19 13.7 NE 19 28 10 15 1013.0 1011.9 0.0
27/11:00am 29.4 24.1 4.8 21 12.9 NE 22 35 12 19 1013.4 1012.3 0.0
27/10:30am 28.2 24.3 6.9 26 11.5 NE 17 26 9 14 1013.6 1012.5 0.0
27/10:00am 27.2 23.5 8.1 30 10.5 NE 17 26 9 14 1013.8 1012.7 0.0
27/09:30am 25.7 21.6 8.7 34 9.3 NE 20 30 11 16 1014.2 1013.0 0.0
27/09:00am 24.1 20.5 9.7 40 8.0 NE 19 28 10 15 1014.3 1013.1 0.0
27/08:30am 21.6 18.2 10.4 49 6.2 NE 19 28 10 15 1014.3 1013.1 0.0
27/08:00am 19.5 15.5 10.5 56 4.9 NE 22 28 12 15 1014.3 1013.1 0.0
27/07:30am 17.5 14.0 10.9 65 3.6 NE 20 32 11 17 1014.4 1013.2 0.0
27/07:00am 15.5 12.3 11.1 75 2.4 ENE 19 26 10 14 1014.6 1013.4 0.0
27/06:30am 13.5 10.9 10.7 83 1.5 ENE 15 22 8 12 1014.4 1013.2 0.0
27/06:00am 11.8 9.0 10.0 89 0.9 ENE 15 20 8 11 1014.4 1013.2 0.0
27/05:30am 11.3 8.4 9.7 90 0.8 ENE 15 20 8 11 1014.3 1013.1 0.0
27/05:00am 11.4 8.2 9.8 90 0.8 E 17 22 9 12 1013.9 1012.8 0.0
27/04:30am 11.7 8.5 9.9 89 0.9 E 17 22 9 12 1013.8 1012.7 0.0
27/04:00am 12.1 8.6 10.2 88 1.0 ENE 19 24 10 13 1013.6 1012.5 0.0
27/03:30am 12.5 9.1 10.6 88 1.0 E 19 24 10 13 1013.6 1012.5 0.0
27/03:00am 13.0 9.8 11.1 88 1.0 E 19 24 10 13 1013.7 1012.6 0.0
27/02:30am 13.4 10.7 11.6 89 1.0 E 17 24 9 13 1014.1 1012.9 0.0
27/02:00am 13.9 10.8 12.1 89 1.0 E 20 28 11 15 1014.1 1012.9 0.0
27/01:30am 14.4 11.1 12.8 90 0.9 E 22 32 12 17 1014.3 1013.1 0.0
27/01:00am 14.7 11.6 13.4 92 0.7 E 22 28 12 15 1014.4 1013.2 0.0
27/12:30am 14.7 11.5 13.2 91 0.8 E 22 28 12 15 1014.7 1013.5 0.0
27/12:00am 15.1 12.4 13.5 90 0.9 E 20 30 11 16 1014.9 1013.7 0.0
 
Date/Time
WST
Temp
°C
App
Temp
°C
Dew
Point
Rel
Hum
%
Delta-T
°C
Wind Press
QNH
hPa
Press
MSL
hPa
Rain
since 9 am
mm
Dir
 
Spd
km/h
Gust
km/h
Spd
kts
Gust
kts
26/11:30pm 15.3 12.2 13.3 88 1.1 E 22 28 12 15 1015.2 1014.0 0.0
26/11:00pm 15.6 12.5 13.4 87 1.2 E 22 32 12 17 1015.3 1014.2 0.0
26/10:30pm 15.9 12.0 13.4 85 1.4 E 26 35 14 19 1015.5 1014.4 0.0
26/10:00pm 15.9 12.3 13.2 84 1.5 E 24 35 13 19 1015.7 1014.6 0.0
26/09:30pm 16.1 12.5 13.0 82 1.7 E 24 35 13 19 1015.9 1014.8 0.0
26/09:00pm 16.0 12.4 12.9 82 1.7 E 24 33 13 18 1015.9 1014.8 0.0
26/08:30pm 16.0 11.5 12.6 80 1.9 ESE 28 41 15 22 1015.9 1014.8 0.0
26/08:00pm 16.2 12.4 12.4 78 2.1 ESE 24 39 13 21 1016.0 1014.9 0.0
26/07:30pm 16.8 12.5 12.1 74 2.6 ESE 26 37 14 20 1016.0 1014.9 0.0
26/07:00pm 17.7 13.0 11.9 69 3.2 E 28 37 15 20 1015.8 1014.7 0.0
26/06:30pm 19.2 14.8 11.7 62 4.2 ESE 26 35 14 19 1015.6 1014.5 0.0
26/06:00pm 20.4 15.3 11.9 58 4.8 ESE 30 44 16 24 1015.5 1014.4 0.0
26/05:30pm 21.4 16.1 11.4 53 5.6 ESE 30 43 16 23 1015.4 1014.3 0.0
26/05:00pm 22.0 16.3 11.1 50 6.1 ESE 32 43 17 23 1015.3 1014.2 0.0
26/04:30pm 22.4 16.7 11.2 49 6.3 ESE 32 43 17 23 1015.4 1014.3 0.0
26/04:00pm 23.5 18.1 10.9 45 7.1 ESE 30 44 16 24 1015.6 1014.5 0.0
26/03:30pm 24.0 18.2 10.7 43 7.5 ESE 32 44 17 24 1015.7 1014.6 0.0
26/03:00pm 24.0 18.1 10.3 42 7.7 ESE 32 46 17 25 1015.7 1014.6 0.0
26/02:30pm 24.7 19.5 10.2 40 8.1 ESE 28 41 15 22 1015.8 1014.7 0.0
26/02:00pm 25.3 19.7 10.0 38 8.6 ESE 30 43 16 23 1016.0 1014.9 0.0
26/01:30pm 25.3 19.8 10.4 39 8.4 ESE 30 48 16 26 1016.0 1014.9 0.0
26/01:25pm 25.3 20.0 10.0 38 8.6 ESE 28 48 15 26 1016.1 1015.0 0.0
26/01:00pm 25.6 21.7 9.4 36 9.0 E 20 35 11 19 1016.4 1015.3 0.0
26/12:30pm 24.8 20.7 8.7 36 8.8 ESE 20 33 11 18 1016.8 1015.7 0.0
26/12:00pm 24.3 20.1 8.3 36 8.6 E 20 39 11 21 1017.2 1016.1 0.0
26/11:30am 24.7 20.6 8.6 36 8.8 E 20 32 11 17 1017.7 1016.5 0.0
26/11:00am 23.2 19.1 8.5 39 7.9 E 20 35 11 19 1018.2 1017.1 0.0
26/10:30am 22.1 17.6 8.6 42 7.3 E 22 33 12 18 1018.5 1017.4 0.0
26/10:00am 21.7 17.7 8.9 44 6.9 E 20 30 11 16 1018.9 1017.8 0.0
26/09:30am 20.3 15.8 8.6 47 6.2 E 22 37 12 20 1019.1 1018.0 0.0
26/09:00am 19.5 14.6 8.5 49 5.8 E 24 35 13 19 1019.4 1018.3 0.0
26/08:30am 18.8 13.2 8.7 52 5.3 E 28 39 15 21 1019.8 1018.7 0.0
26/08:00am 18.1 12.1 8.7 54 4.9 ENE 30 43 16 23 1020.0 1018.9 0.0
26/07:30am 17.1 11.4 8.5 57 4.5 ENE 28 39 15 21 1020.0 1018.9 0.0
26/07:00am 15.7 9.7 8.7 63 3.6 ENE 30 43 16 23 1020.1 1019.0 0.0
26/06:30am 14.5 10.0 8.7 68 3.0 ENE 22 33 12 18 1020.0 1018.9 0.0
26/06:00am 12.8 8.7 8.5 75 2.2 ENE 20 26 11 14 1019.8 1018.7 0.0
26/05:30am 11.5 8.2 8.2 80 1.6 ENE 15 20 8 11 1019.9 1018.8 0.0
26/05:00am 11.4 8.5 8.3 81 1.5 ENE 13 17 7 9 1019.7 1018.6 0.0
26/04:30am 12.1 9.4 8.9 81 1.6 ENE 13 20 7 11 1019.5 1018.4 0.0
26/04:00am 12.9 9.9 9.4 79 1.8 ENE 15 19 8 10 1019.1 1018.0 0.0
26/03:30am 12.5 9.9 9.3 81 1.6 E 13 17 7 9 1019.0 1017.9 0.0
26/03:00am 13.0 10.8 9.3 78 1.9 E 11 13 6 7 1019.0 1017.9 0.0
26/02:30am 13.0 10.7 9.1 77 2.0 E 11 15 6 8 1019.0 1017.9 0.0
26/02:00am 13.0 10.7 9.1 77 2.0 E 11 13 6 7 1019.2 1018.1 0.0
26/01:30am 13.1 10.7 8.6 74 2.3 ESE 11 15 6 8 1019.4 1018.3 0.0
26/01:00am 13.6 10.8 8.7 72 2.5 ESE 13 15 7 8 1019.6 1018.5 0.0
26/12:30am 13.7 10.5 8.3 70 2.7 ESE 15 22 8 12 1019.6 1018.5 0.0
26/12:00am 14.2 10.2 8.4 68 2.9 ESE 19 26 10 14 1019.7 1018.6 0.0
 
Date/Time
WST
Temp
°C
App
Temp
°C
Dew
Point
Rel
Hum
%
Delta-T
°C
Wind Press
QNH
hPa
Press
MSL
hPa
Rain
since 9 am
mm
Dir
 
Spd
km/h
Gust
km/h
Spd
kts
Gust
kts
25/11:30pm 14.3 9.8 8.5 68 3.0 ESE 22 30 12 16 1019.8 1018.7 0.0
25/11:00pm 14.5 10.4 8.5 67 3.1 ESE 20 32 11 17 1020.0 1018.9 0.0
25/10:30pm 15.1 11.0 8.8 66 3.3 ESE 20 30 11 16 1020.2 1019.1 0.0
25/10:00pm 15.1 10.7 9.0 67 3.2 ESE 22 32 12 17 1020.2 1019.1 0.0
25/09:30pm 15.0 10.5 8.7 66 3.2 ESE 22 30 12 16 1020.2 1019.1 0.0
25/09:00pm 15.2 10.7 8.4 64 3.5 ESE 22 33 12 18 1020.2 1019.1 0.0
25/08:30pm 15.2 10.3 8.4 64 3.5 ESE 24 32 13 17 1020.2 1019.1 0.0
25/08:00pm 15.1 10.5 8.3 64 3.5 ESE 22 32 12 17 1020.0 1018.9 0.0
25/07:30pm 15.0 10.4 8.3 64 3.4 ESE 22 32 12 17 1020.0 1018.9 0.0
25/07:00pm 15.2 9.8 8.2 63 3.6 ESE 26 35 14 19 1019.8 1018.7 0.0
25/06:30pm 16.4 11.4 8.1 58 4.3 ESE 24 33 13 18 1019.4 1018.3 0.0
25/06:00pm 17.5 11.7 8.1 54 4.9 SE 28 35 15 19 1019.0 1017.9 0.0
25/05:30pm 18.6 13.1 7.7 49 5.6 ESE 26 37 14 20 1018.8 1017.7 0.0
25/05:00pm 19.7 14.5 7.4 45 6.4 SE 24 37 13 20 1018.9 1017.8 0.0
25/04:30pm 20.5 15.7 7.2 42 6.9 ESE 22 35 12 19 1019.0 1017.9 0.0
25/04:00pm 21.1 16.6 7.0 40 7.3 ESE 20 32 11 17 1019.1 1018.0 0.0
25/03:30pm 21.0 15.8 7.3 41 7.1 SE 24 35 13 19 1019.2 1018.1 0.0
25/03:00pm 21.5 16.7 7.3 40 7.4 ESE 22 35 12 19 1019.4 1018.3 0.0
25/02:30pm 21.6 16.8 7.4 40 7.4 ESE 22 32 12 17 1019.6 1018.5 0.0
25/02:00pm 22.1 17.0 7.5 39 7.7 ESE 24 37 13 20 1019.6 1018.5 0.0
25/01:30pm 21.3 17.0 7.9 42 7.1 SE 20 33 11 18 1019.7 1018.6 0.0
25/01:00pm 22.2 17.6 8.0 40 7.5 SE 22 35 12 19 1019.6 1018.5 0.0
25/12:30pm 21.7 16.5 7.2 39 7.6 ESE 24 35 13 19 1019.9 1018.8 0.0
25/12:00pm 20.4 16.2 7.4 43 6.7 ESE 19 33 10 18 1020.2 1019.1 0.0
25/11:30am 20.7 16.3 7.3 42 7.0 ESE 20 32 11 17 1020.3 1019.2 0.0
25/11:00am 19.7 14.9 7.4 45 6.4 ESE 22 37 12 20 1020.5 1019.4 0.0
25/10:30am 19.3 15.0 7.7 47 6.0 E 20 32 11 17 1020.5 1019.4 0.0
25/10:00am 19.3 15.2 7.7 47 6.0 SE 19 35 10 19 1020.9 1019.7 0.0
25/09:30am 18.6 14.3 7.7 49 5.6 ESE 20 32 11 17 1021.1 1020.0 0.0
25/09:00am 18.2 13.8 7.6 50 5.4 ESE 20 30 11 16 1021.3 1020.2 0.0
25/08:30am 16.7 12.5 8.1 57 4.4 ESE 20 30 11 16 1021.1 1020.0 0.0
25/08:00am 16.2 12.1 7.9 58 4.2 ESE 19 30 10 16 1021.0 1019.8 0.0
25/07:30am 16.4 12.3 8.6 60 4.0 SE 20 28 11 15 1020.7 1019.6 0.0
25/07:00am 15.6 10.9 7.9 60 3.9 SE 22 30 12 16 1020.3 1019.2 0.0

Other Formats:

Comma delimited format used in spreadsheet applications
http://www.bom.gov.au/fwo/IDW60801/IDW60801.95636.axf

JavaScript Object Notation format (JSON) in row-major order
http://www.bom.gov.au/fwo/IDW60801/IDW60801.95636.json